Time;durP1;ratioP1;P1;durP2;ratioP2;P2;SDS_P1;SDS_P2;PMS_P1;PMS_P2;Temp;Humidity;BMP_temperature;BMP_pressure;BME280_temperature;BME280_humidity;BME280_pressure;Samples;Min_cycle;Max_cycle;Signal;HPM_P1;HPM_P2
2022/05/13 00:00:13;;;;;;;7.18;4.10;;;17.50;99.90;;;;;;5094102;28;20086;-72
2022/05/13 00:02:40;;;;;;;7.28;3.67;;;17.50;99.90;;;;;;5093998;28;20016;-72
2022/05/13 00:05:08;;;;;;;6.80;3.80;;;17.50;99.90;;;;;;5093722;28;20028;-72
2022/05/13 00:07:34;;;;;;;5.60;3.60;;;17.50;99.90;;;;;;5093937;28;20031;-72
2022/05/13 00:10:05;;;;;;;5.65;3.50;;;17.50;99.90;;;;;;5093332;28;20467;-72
2022/05/13 00:12:35;;;;;;;6.47;3.90;;;17.50;99.90;;;;;;5093594;28;20031;-72
2022/05/13 00:15:03;;;;;;;8.13;3.58;;;17.60;99.90;;;;;;5093530;28;20586;-72
2022/05/13 00:17:29;;;;;;;6.18;4.00;;;17.60;99.90;;;;;;5093555;28;20024;-72
2022/05/13 00:19:55;;;;;;;4.78;3.33;;;17.60;99.90;;;;;;5093571;28;20054;-70
2022/05/13 00:22:21;;;;;;;5.95;3.40;;;17.60;99.90;;;;;;5093283;28;20028;-72
2022/05/13 00:24:47;;;;;;;4.68;3.53;;;17.60;99.90;;;;;;5093537;28;20479;-72
2022/05/13 00:27:13;;;;;;;5.75;3.35;;;17.60;99.90;;;;;;5093488;28;20035;-72
2022/05/13 00:29:39;;;;;;;4.40;2.95;;;17.50;99.90;;;;;;5093741;28;20493;-72
2022/05/13 00:32:06;;;;;;;4.60;3.40;;;17.50;99.90;;;;;;5093405;28;20043;-72
2022/05/13 00:34:33;;;;;;;6.15;4.07;;;17.50;99.90;;;;;;5075185;28;20027;-72
2022/05/13 00:36:59;;;;;;;6.82;4.07;;;17.40;99.90;;;;;;5093399;28;20016;-72
2022/05/13 00:39:25;;;;;;;8.25;4.45;;;17.40;99.90;;;;;;5093369;28;20023;-72
2022/05/13 00:41:53;;;;;;;8.30;3.88;;;17.30;99.90;;;;;;5075149;28;20028;-71
2022/05/13 00:44:19;;;;;;;7.05;4.43;;;17.30;99.90;;;;;;5093291;28;20027;-72
2022/05/13 00:46:44;;;;;;;9.13;4.50;;;17.20;99.90;;;;;;5093279;28;20032;-72
2022/05/13 00:49:14;;;;;;;6.53;4.53;;;17.20;99.90;;;;;;5093518;28;20364;-72
2022/05/13 00:51:45;;;;;;;7.18;4.15;;;17.20;99.90;;;;;;5093308;28;20483;-72
2022/05/13 00:54:13;;;;;;;6.30;4.47;;;17.10;99.90;;;;;;5093185;28;20520;-72
2022/05/13 00:56:43;;;;;;;5.68;3.83;;;17.20;99.90;;;;;;5093255;28;20096;-71
2022/05/13 00:59:13;;;;;;;5.15;4.07;;;17.10;99.90;;;;;;5093531;28;20013;-73
2022/05/13 01:01:39;;;;;;;6.13;4.40;;;17.20;99.90;;;;;;5093277;28;20035;-73
2022/05/13 01:04:08;;;;;;;9.50;5.35;;;17.10;99.90;;;;;;5073797;28;20369;-73
2022/05/13 01:06:34;;;;;;;10.10;5.50;;;17.10;99.90;;;;;;5073771;28;20068;-73
2022/05/13 01:09:01;;;;;;;7.78;5.47;;;17.10;99.90;;;;;;5092413;28;20112;-73
2022/05/13 01:11:30;;;;;;;8.18;5.00;;;17.00;99.90;;;;;;5092985;28;20029;-73
2022/05/13 01:14:00;;;;;;;8.25;4.88;;;16.90;99.90;;;;;;5092513;28;20024;-73
2022/05/13 01:16:26;;;;;;;8.27;5.10;;;16.90;99.90;;;;;;5092971;28;20494;-73
2022/05/13 01:18:52;;;;;;;6.78;4.85;;;16.90;99.90;;;;;;5092857;28;20262;-73
2022/05/13 01:21:29;;;;;;;6.95;5.45;;;16.90;99.90;;;;;;5094638;28;20028;-73
2022/05/13 01:23:55;;;;;;;7.60;5.07;;;16.90;99.90;;;;;;5096414;28;20109;-73
2022/05/13 01:26:26;;;;;;;6.85;4.40;;;16.90;99.90;;;;;;5096676;28;20637;-73
2022/05/13 01:28:54;;;;;;;8.10;5.00;;;16.90;99.90;;;;;;5096230;28;20487;-73
2022/05/13 01:31:30;;;;;;;5.88;4.03;;;16.90;99.90;;;;;;5096327;28;20028;-72
2022/05/13 01:33:57;;;;;;;5.93;3.67;;;16.90;99.90;;;;;;5096338;28;20050;-73
2022/05/13 01:36:23;;;;;;;4.40;3.63;;;16.80;99.90;;;;;;5096080;28;20028;-72
2022/05/13 01:38:49;;;;;;;4.43;3.10;;;16.80;99.90;;;;;;5078363;28;20016;-72
2022/05/13 01:41:16;;;;;;;7.15;3.45;;;16.70;99.90;;;;;;5096381;28;20100;-72
2022/05/13 01:43:43;;;;;;;6.35;3.50;;;16.60;99.90;;;;;;5096273;28;20068;-73
2022/05/13 01:46:09;;;;;;;5.20;3.63;;;16.60;99.90;;;;;;5096339;28;20399;-72
2022/05/13 01:48:36;;;;;;;7.13;4.00;;;16.60;99.90;;;;;;5096259;28;20415;-72
2022/05/13 01:51:03;;;;;;;5.15;3.50;;;16.50;99.90;;;;;;5096203;28;20434;-73
2022/05/13 01:53:29;;;;;;;6.43;3.65;;;16.40;99.90;;;;;;5096046;28;20447;-73
2022/05/13 01:55:55;;;;;;;8.13;4.07;;;16.30;99.90;;;;;;5096447;28;20024;-73
2022/05/13 01:58:24;;;;;;;6.20;4.43;;;16.30;99.90;;;;;;5096041;28;20158;-73
2022/05/13 02:00:52;;;;;;;6.72;3.70;;;16.20;99.90;;;;;;5096043;28;20065;-73
2022/05/13 02:06:03;;;;;;;6.00;4.55;;;16.20;99.90;;;;;;5096258;28;20488;-73
2022/05/13 02:08:30;;;;;;;8.45;3.55;;;16.20;99.90;;;;;;5096205;28;20472;-73
2022/05/13 02:10:56;;;;;;;7.75;3.72;;;16.20;99.90;;;;;;5096102;28;20101;-73
2022/05/13 02:13:22;;;;;;;5.93;3.65;;;16.20;99.90;;;;;;5095661;28;20024;-73
2022/05/13 02:15:48;;;;;;;10.05;3.67;;;16.10;99.90;;;;;;5095724;28;20027;-73
2022/05/13 02:18:14;;;;;;;4.32;3.13;;;16.10;99.90;;;;;;5077580;28;20112;-73
2022/05/13 02:20:40;;;;;;;6.65;3.65;;;16.10;99.90;;;;;;5095618;28;20048;-73
2022/05/13 02:23:07;;;;;;;8.15;4.20;;;16.10;99.90;;;;;;5095511;28;20089;-72
2022/05/13 02:25:33;;;;;;;6.68;3.42;;;16.10;99.90;;;;;;5095565;28;20074;-72
2022/05/13 02:27:59;;;;;;;5.63;3.67;;;15.90;99.90;;;;;;5095538;28;20021;-72
2022/05/13 02:30:26;;;;;;;6.50;3.80;;;15.90;99.90;;;;;;5095494;28;20480;-73
2022/05/13 02:32:52;;;;;;;5.82;3.85;;;15.70;99.90;;;;;;5076782;28;20032;-72
2022/05/13 02:35:19;;;;;;;6.82;3.80;;;15.60;99.90;;;;;;5095305;28;20031;-72
2022/05/13 02:37:44;;;;;;;6.53;4.03;;;15.50;99.90;;;;;;5095302;28;20020;-73
2022/05/13 02:40:11;;;;;;;7.70;4.47;;;15.40;99.90;;;;;;5095552;28;20140;-73
2022/05/13 02:42:37;;;;;;;6.78;4.10;;;15.30;99.90;;;;;;5095120;28;20020;-73
2022/05/13 02:45:04;;;;;;;9.85;4.75;;;15.30;99.90;;;;;;5095179;28;20527;-73
2022/05/13 02:47:30;;;;;;;6.07;3.90;;;15.30;99.90;;;;;;5076914;28;20062;-73
2022/05/13 02:52:39;;;;;;;7.78;3.40;;;15.40;99.90;;;;;;5095244;28;20039;-73
2022/05/13 02:55:06;;;;;;;6.32;4.03;;;15.40;99.90;;;;;;5094897;28;20032;-73
2022/05/13 02:57:33;;;;;;;6.18;3.60;;;15.50;99.90;;;;;;5095261;28;20095;-73
2022/05/13 02:59:59;;;;;;;6.63;3.40;;;15.60;99.90;;;;;;5094834;28;20017;-73
2022/05/13 03:02:25;;;;;;;5.63;3.28;;;15.60;99.90;;;;;;5094819;28;20388;-73
2022/05/13 03:04:51;;;;;;;9.18;4.40;;;15.70;99.90;;;;;;5094791;28;20028;-73
2022/05/13 03:07:17;;;;;;;5.88;4.13;;;15.70;99.90;;;;;;5095047;28;20440;-73
2022/05/13 03:09:42;;;;;;;6.13;3.88;;;15.70;99.90;;;;;;5094916;28;20024;-73
2022/05/13 03:12:09;;;;;;;8.18;4.03;;;15.80;99.90;;;;;;5094564;28;20031;-74
2022/05/13 03:14:34;;;;;;;5.40;3.30;;;15.80;99.90;;;;;;5095050;28;20110;-73
2022/05/13 03:17:00;;;;;;;5.68;3.47;;;15.80;99.90;;;;;;5094619;28;20443;-73
2022/05/13 03:19:26;;;;;;;6.95;4.18;;;15.80;99.90;;;;;;5094548;28;20361;-73
2022/05/13 03:21:51;;;;;;;8.15;4.20;;;15.80;99.90;;;;;;5094719;28;20517;-73
2022/05/13 03:24:17;;;;;;;6.70;4.50;;;15.80;99.90;;;;;;5094266;28;20040;-73
2022/05/13 03:26:42;;;;;;;7.55;4.47;;;15.70;99.90;;;;;;5094428;28;20493;-73
2022/05/13 03:29:08;;;;;;;6.80;4.65;;;15.60;99.90;;;;;;5094354;28;20443;-73
2022/05/13 03:31:36;;;;;;;5.75;4.38;;;15.60;99.90;;;;;;5094250;28;20387;-73
2022/05/13 03:34:02;;;;;;;5.00;3.95;;;15.60;99.90;;;;;;5076523;28;20028;-73
2022/05/13 03:36:27;;;;;;;5.85;4.00;;;15.60;99.90;;;;;;5094500;28;20073;-73
2022/05/13 03:38:53;;;;;;;5.55;4.20;;;15.60;99.90;;;;;;5094442;28;20077;-73
2022/05/13 03:41:19;;;;;;;6.72;4.60;;;15.60;99.90;;;;;;5094191;28;20031;-73
2022/05/13 03:43:45;;;;;;;5.60;4.20;;;15.60;99.90;;;;;;5093250;28;20035;-73
2022/05/13 03:46:10;;;;;;;5.82;4.05;;;15.70;99.90;;;;;;5094315;28;20032;-73
2022/05/13 03:48:36;;;;;;;6.55;4.43;;;15.60;99.90;;;;;;5076088;28;20035;-73
2022/05/13 03:51:02;;;;;;;6.38;4.57;;;15.60;99.90;;;;;;5094235;28;20052;-73
2022/05/13 03:53:28;;;;;;;6.45;4.82;;;15.70;99.90;;;;;;5075852;28;20062;-72
2022/05/13 03:55:54;;;;;;;6.10;4.40;;;15.70;99.90;;;;;;5093876;28;20117;-72
2022/05/13 03:58:20;;;;;;;6.63;4.35;;;15.70;99.90;;;;;;5094177;28;20027;-73
2022/05/13 04:00:46;;;;;;;7.13;4.28;;;15.70;99.90;;;;;;5093802;28;20422;-73
2022/05/13 04:03:13;;;;;;;7.15;4.28;;;15.70;99.90;;;;;;5093695;28;20382;-73
2022/05/13 04:11:07;;;;;;;9.25;6.82;;;15.70;99.90;;;;;;5094006;28;20087;-73
2022/05/13 04:16:17;;;;;;;6.70;4.43;;;15.70;99.90;;;;;;5093644;28;20065;-73
2022/05/13 04:18:45;;;;;;;7.50;4.88;;;15.70;99.90;;;;;;5093806;28;20103;-72
2022/05/13 04:21:21;;;;;;;7.25;5.07;;;15.70;99.90;;;;;;5093603;28;20024;-73
2022/05/13 04:23:49;;;;;;;9.25;4.97;;;15.70;99.90;;;;;;5093451;28;20035;-72
2022/05/13 04:26:16;;;;;;;7.32;5.00;;;15.60;99.90;;;;;;5093489;28;20024;-72
2022/05/13 04:28:46;;;;;;;6.85;5.35;;;15.60;99.90;;;;;;5093716;28;20027;-72
2022/05/13 04:31:14;;;;;;;7.15;4.90;;;15.60;99.90;;;;;;5075370;28;20020;-73
2022/05/13 04:33:40;;;;;;;7.60;4.45;;;15.50;99.90;;;;;;5093384;28;20020;-73
2022/05/13 04:36:07;;;;;;;7.15;4.90;;;15.40;99.90;;;;;;5093416;28;20054;-73
2022/05/13 04:38:34;;;;;;;8.00;4.72;;;15.40;99.90;;;;;;5093404;28;20020;-73
2022/05/13 04:42:49;;;;;;;6.25;4.88;;;15.40;99.90;;;;;;5093641;28;20107;-73
2022/05/13 04:43:46;;;;;;;6.63;4.57;;;15.40;99.90;;;;;;5093085;28;20063;-73
2022/05/13 04:46:11;;;;;;;9.27;5.20;;;15.40;99.90;;;;;;5093303;28;20029;-73
2022/05/13 04:48:37;;;;;;;7.20;5.03;;;15.40;99.90;;;;;;5093288;28;20052;-73
2022/05/13 04:51:03;;;;;;;7.05;5.20;;;15.50;99.90;;;;;;5093534;28;20032;-73
2022/05/13 04:53:31;;;;;;;6.43;4.80;;;15.50;99.90;;;;;;5093212;28;20028;-73
2022/05/13 04:55:59;;;;;;;6.20;5.47;;;15.50;99.90;;;;;;5096078;28;20048;-73
2022/05/13 04:58:25;;;;;;;8.23;4.95;;;15.50;99.90;;;;;;5097597;28;20020;-73
2022/05/13 05:00:54;;;;;;;6.40;4.43;;;15.40;99.90;;;;;;5097507;28;20024;-73
2022/05/13 05:03:22;;;;;;;8.85;5.10;;;15.40;99.90;;;;;;5078983;28;20103;-73
2022/05/13 05:05:47;;;;;;;9.52;5.97;;;15.40;99.90;;;;;;5097400;28;20020;-73
2022/05/13 05:08:14;;;;;;;7.30;5.25;;;15.40;99.90;;;;;;5097607;28;20100;-73
2022/05/13 05:10:42;;;;;;;7.05;4.75;;;15.30;99.90;;;;;;5097064;28;20048;-73
2022/05/13 05:13:08;;;;;;;7.45;5.00;;;15.30;99.90;;;;;;5096912;28;20074;-73
2022/05/13 05:15:36;;;;;;;7.40;5.03;;;15.30;99.90;;;;;;5096835;28;20025;-73
2022/05/13 05:18:03;;;;;;;11.20;4.72;;;15.40;99.90;;;;;;5096841;28;20023;-73
2022/05/13 05:20:29;;;;;;;6.93;5.10;;;15.40;99.90;;;;;;5096817;28;20023;-73
2022/05/13 05:22:54;;;;;;;7.45;4.90;;;15.40;99.90;;;;;;5120352;22;20031;-67
2022/05/13 05:25:21;;;;;;;6.82;4.75;;;15.40;99.90;;;;;;5074825;28;20117;-69
2022/05/13 05:27:48;;;;;;;9.02;5.43;;;15.40;99.90;;;;;;5076434;28;20391;-69
2022/05/13 05:30:15;;;;;;;7.72;5.22;;;15.50;99.90;;;;;;5076370;28;20025;-69
2022/05/13 05:32:41;;;;;;;7.90;4.88;;;15.50;99.90;;;;;;5076557;28;20029;-69
2022/05/13 05:35:12;;;;;;;7.15;5.78;;;15.50;99.90;;;;;;5076128;28;20102;-69
2022/05/13 05:37:37;;;;;;;8.38;5.70;;;15.50;99.90;;;;;;5076591;28;20017;-69
2022/05/13 05:40:05;;;;;;;9.00;5.25;;;15.50;99.90;;;;;;5076176;28;20045;-69
2022/05/13 05:42:31;;;;;;;8.27;5.00;;;15.50;99.90;;;;;;5076151;28;20025;-69
2022/05/13 05:44:57;;;;;;;5.78;4.32;;;15.50;99.90;;;;;;5076099;28;20468;-69
2022/05/13 05:47:23;;;;;;;8.70;6.07;;;15.50;99.90;;;;;;5076349;28;20039;-69
2022/05/13 05:49:50;;;;;;;10.80;5.35;;;15.50;99.90;;;;;;5076026;28;20031;-68
2022/05/13 05:52:16;;;;;;;8.23;6.05;;;15.50;99.90;;;;;;5075976;28;20025;-68
2022/05/13 05:57:26;;;;;;;7.90;5.07;;;15.40;99.90;;;;;;5076204;28;20034;-68
2022/05/13 05:59:52;;;;;;;8.35;5.40;;;15.40;99.90;;;;;;5076098;28;20020;-68
2022/05/13 06:02:18;;;;;;;9.88;6.20;;;15.40;99.90;;;;;;5057790;28;20031;-68
2022/05/13 06:04:43;;;;;;;9.10;6.50;;;15.40;99.90;;;;;;5057735;28;20020;-68
2022/05/13 06:07:15;;;;;;;8.40;5.78;;;15.30;99.90;;;;;;5074966;28;20472;-68
2022/05/13 06:09:42;;;;;;;8.35;6.05;;;15.30;99.90;;;;;;5075515;28;20032;-68
2022/05/13 06:12:10;;;;;;;8.18;5.60;;;15.30;99.90;;;;;;5069675;28;20027;-68
2022/05/13 06:14:36;;;;;;;8.20;5.47;;;15.30;99.90;;;;;;5055961;28;20449;-68
2022/05/13 06:17:03;;;;;;;11.15;7.45;;;15.30;99.90;;;;;;5055513;28;20021;-68
2022/05/13 06:19:29;;;;;;;10.50;7.32;;;15.40;99.90;;;;;;5055433;28;20021;-68
2022/05/13 06:21:55;;;;;;;10.32;7.00;;;15.30;99.90;;;;;;5055913;28;20028;-69
2022/05/13 06:24:21;;;;;;;10.57;6.65;;;15.40;99.90;;;;;;5066068;28;20040;-68
2022/05/13 06:26:49;;;;;;;9.30;7.07;;;15.30;99.90;;;;;;5057403;28;20036;-69
2022/05/13 06:29:20;;;;;;;9.68;6.25;;;15.30;99.90;;;;;;5075581;28;20024;-69
2022/05/13 06:31:46;;;;;;;8.57;6.93;;;15.20;99.90;;;;;;5075833;28;20119;-69
2022/05/13 06:34:14;;;;;;;8.38;6.13;;;15.20;99.90;;;;;;5075334;28;20167;-69
2022/05/13 06:36:40;;;;;;;8.38;6.07;;;15.30;99.90;;;;;;5075149;28;20480;-69
2022/05/13 06:39:07;;;;;;;9.20;5.70;;;15.30;99.90;;;;;;5075052;28;20389;-69
2022/05/13 06:41:37;;;;;;;8.13;6.50;;;15.30;99.90;;;;;;5075565;28;20016;-69
2022/05/13 06:44:05;;;;;;;9.50;6.47;;;15.30;99.90;;;;;;5074909;28;20024;-67
2022/05/13 06:46:33;;;;;;;11.57;7.13;;;15.30;99.90;;;;;;5055218;28;20036;-67
2022/05/13 06:48:59;;;;;;;9.60;6.35;;;15.30;99.90;;;;;;5054876;28;20481;-67
2022/05/13 06:51:25;;;;;;;7.22;5.55;;;15.40;99.90;;;;;;5054814;28;20035;-67
2022/05/13 06:53:51;;;;;;;9.20;5.97;;;15.40;99.90;;;;;;5061337;28;20033;-67
2022/05/13 06:56:16;;;;;;;9.25;6.93;;;15.50;99.90;;;;;;5075193;28;20487;-67
2022/05/13 06:58:42;;;;;;;7.97;6.65;;;15.50;99.90;;;;;;5074899;28;20020;-67
2022/05/13 07:01:08;;;;;;;7.72;6.70;;;15.60;99.90;;;;;;5074656;28;20468;-67
2022/05/13 07:03:34;;;;;;;10.35;7.07;;;15.60;99.90;;;;;;5074468;28;20029;-67
2022/05/13 07:05:59;;;;;;;9.88;7.70;;;15.70;99.90;;;;;;5074753;28;20024;-67
2022/05/13 07:08:25;;;;;;;7.57;5.90;;;15.70;99.90;;;;;;5056408;28;20060;-67
2022/05/13 07:10:51;;;;;;;10.23;7.22;;;15.80;99.90;;;;;;5054453;28;20029;-67
2022/05/13 07:13:16;;;;;;;9.15;6.50;;;15.80;99.90;;;;;;5054284;28;20451;-67
2022/05/13 07:15:43;;;;;;;7.90;6.15;;;15.90;99.90;;;;;;5054634;28;20031;-67
2022/05/13 07:18:09;;;;;;;7.43;5.70;;;15.90;99.90;;;;;;5054044;28;20021;-67
2022/05/13 07:20:35;;;;;;;9.45;7.53;;;15.90;99.90;;;;;;5054268;28;20075;-67
2022/05/13 07:23:01;;;;;;;9.90;8.30;;;15.90;99.90;;;;;;5052951;28;20361;-67
2022/05/13 07:25:27;;;;;;;8.75;7.50;;;15.90;99.90;;;;;;5056060;28;20028;-67
2022/05/13 07:27:53;;;;;;;8.82;7.28;;;16.00;99.90;;;;;;5074373;28;20087;-67
2022/05/13 07:31:02;;;;;;;11.32;8.13;;;15.90;99.90;;;;;;5074154;28;20039;-67
2022/05/13 07:33:30;;;;;;;9.63;7.18;;;15.90;99.90;;;;;;5074158;28;20021;-67
2022/05/13 07:35:56;;;;;;;10.60;7.13;;;15.90;99.90;;;;;;5073833;28;20051;-68
2022/05/13 07:38:22;;;;;;;11.10;7.22;;;15.90;99.90;;;;;;5074194;28;20429;-68
2022/05/13 07:43:32;;;;;;;9.50;6.80;;;15.90;99.90;;;;;;5073784;28;20094;-68
2022/05/13 07:45:57;;;;;;;7.97;6.38;;;16.00;99.90;;;;;;5073808;28;20468;-68
2022/05/13 07:48:23;;;;;;;9.13;6.70;;;16.00;99.90;;;;;;5074303;28;20142;-68
2022/05/13 07:50:50;;;;;;;10.82;8.57;;;16.10;99.90;;;;;;5040991;28;20476;-68
2022/05/13 07:53:15;;;;;;;14.40;8.73;;;16.10;99.90;;;;;;5055820;28;20048;-68
2022/05/13 07:55:41;;;;;;;13.15;8.20;;;16.10;99.90;;;;;;5073392;28;20137;-68
2022/05/13 07:58:07;;;;;;;10.48;8.27;;;16.10;99.90;;;;;;5073853;28;20118;-68
2022/05/13 08:00:33;;;;;;;9.35;6.78;;;16.20;99.90;;;;;;5073876;28;20056;-68
2022/05/13 08:03:08;;;;;;;8.40;7.50;;;16.20;99.90;;;;;;5055546;28;20388;-68
2022/05/13 08:05:40;;;;;;;12.38;9.45;;;16.30;99.90;;;;;;5073868;28;20490;-68
2022/05/13 08:08:30;;;;;;;11.48;8.52;;;16.30;99.90;;;;;;5073553;28;20054;-68
2022/05/13 08:10:59;;;;;;;11.25;8.52;;;16.30;99.90;;;;;;5073531;28;20021;-68
2022/05/13 08:13:26;;;;;;;13.15;8.90;;;16.30;99.90;;;;;;5073480;28;20024;-68
2022/05/13 08:15:52;;;;;;;10.88;7.88;;;16.30;99.90;;;;;;5073378;28;20108;-68
2022/05/13 08:18:20;;;;;;;10.23;8.02;;;16.20;99.90;;;;;;5055844;28;20354;-68
2022/05/13 08:20:47;;;;;;;9.70;6.85;;;16.30;99.90;;;;;;5053263;28;20056;-68
2022/05/13 08:23:12;;;;;;;9.05;6.75;;;16.30;99.90;;;;;;5054848;28;20501;-68
2022/05/13 08:25:39;;;;;;;9.05;6.10;;;16.30;99.90;;;;;;5055087;28;20032;-68
2022/05/13 08:28:06;;;;;;;9.40;6.63;;;16.40;99.90;;;;;;5073255;28;20066;-68
2022/05/13 08:30:32;;;;;;;8.40;5.95;;;16.50;99.90;;;;;;5073110;28;20025;-68
2022/05/13 08:33:01;;;;;;;9.65;7.35;;;16.60;99.90;;;;;;5073112;28;20431;-68
2022/05/13 08:35:27;;;;;;;10.13;7.55;;;16.60;99.90;;;;;;5073137;28;20016;-68
2022/05/13 08:37:54;;;;;;;10.60;7.57;;;16.60;99.90;;;;;;5073140;28;20024;-68
2022/05/13 08:40:51;;;;;;;9.52;6.88;;;16.70;99.90;;;;;;5072959;28;20025;-67
2022/05/13 08:43:34;;;;;;;8.15;7.13;;;16.80;99.90;;;;;;5073407;28;20120;-67
2022/05/13 08:46:13;;;;;;;7.75;6.90;;;16.90;99.90;;;;;;5062195;28;20073;-67
2022/05/13 08:48:53;;;;;;;8.65;7.15;;;16.90;99.90;;;;;;5053383;28;20491;-67
2022/05/13 08:51:29;;;;;;;10.83;7.60;;;17.00;99.90;;;;;;5053097;28;20029;-67
2022/05/13 08:54:15;;;;;;;10.13;7.57;;;17.10;99.90;;;;;;5060109;28;20099;-67
2022/05/13 08:56:51;;;;;;;8.13;7.13;;;17.20;99.90;;;;;;5053048;28;20028;-68
2022/05/13 08:59:28;;;;;;;11.98;8.85;;;17.30;99.90;;;;;;5053494;28;20453;-67
2022/05/13 09:02:09;;;;;;;12.40;9.13;;;17.40;99.90;;;;;;5053212;28;20465;-68
2022/05/13 09:04:38;;;;;;;10.60;8.18;;;17.50;99.90;;;;;;5053408;28;20024;-68
2022/05/13 09:07:22;;;;;;;9.45;7.15;;;17.50;99.90;;;;;;5053119;28;20479;-68
2022/05/13 09:09:51;;;;;;;10.07;8.70;;;17.70;99.90;;;;;;5052953;28;20065;-68
2022/05/13 09:12:35;;;;;;;9.60;7.53;;;17.80;99.90;;;;;;5052862;28;20029;-68
2022/05/13 09:15:12;;;;;;;7.65;6.30;;;17.80;99.90;;;;;;5052968;28;20472;-68
2022/05/13 09:17:42;;;;;;;10.52;8.80;;;17.80;99.90;;;;;;5053102;28;20064;-68
2022/05/13 09:20:14;;;;;;;12.18;9.30;;;18.00;99.90;;;;;;5052763;28;20025;-68
2022/05/13 09:22:50;;;;;;;10.15;8.10;;;18.00;99.90;;;;;;5052713;28;20198;-68
2022/05/13 09:25:22;;;;;;;11.70;8.30;;;18.00;99.90;;;;;;5071087;28;20082;-68
2022/05/13 09:27:51;;;;;;;9.38;7.68;;;18.00;99.90;;;;;;5060956;28;20021;-68
2022/05/13 09:30:22;;;;;;;12.55;9.00;;;18.10;99.90;;;;;;5052965;28;20025;-68
2022/05/13 09:32:48;;;;;;;11.93;7.70;;;18.10;99.90;;;;;;5052917;28;20021;-68
2022/05/13 09:35:42;;;;;;;10.63;7.47;;;18.20;99.90;;;;;;5052677;28;20100;-68
2022/05/13 09:38:17;;;;;;;10.60;8.02;;;18.20;99.90;;;;;;5049318;28;20033;-68
2022/05/13 09:41:05;;;;;;;8.50;6.32;;;18.20;99.90;;;;;;5052383;28;20093;-68
2022/05/13 09:43:34;;;;;;;7.97;6.70;;;18.30;99.90;;;;;;5055827;28;20047;-68
2022/05/13 09:46:10;;;;;;;8.63;6.60;;;18.30;99.90;;;;;;5056106;28;20069;-68
2022/05/13 09:48:39;;;;;;;7.88;5.47;;;18.40;99.90;;;;;;5038179;28;20025;-68
2022/05/13 09:51:30;;;;;;;8.50;6.95;;;18.50;99.90;;;;;;5056290;28;20025;-67
2022/05/13 09:54:06;;;;;;;8.25;6.07;;;18.50;99.90;;;;;;5045293;28;20032;-67
2022/05/13 09:56:42;;;;;;;7.40;5.43;;;18.50;99.90;;;;;;5076481;28;20023;-67
2022/05/13 09:59:15;;;;;;;6.60;5.13;;;18.60;99.90;;;;;;5059994;28;20167;-67
2022/05/13 10:01:41;;;;;;;6.65;5.30;;;18.60;99.90;;;;;;5055858;28;20037;-67
2022/05/13 10:04:18;;;;;;;7.00;4.50;;;18.70;99.90;;;;;;5055636;28;20392;-67
2022/05/13 10:06:44;;;;;;;6.07;5.40;;;18.70;99.90;;;;;;5056002;28;20029;-67
2022/05/13 10:15:41;;;;;;;7.63;4.47;;;18.80;99.90;;;;;;5055835;28;20490;-67
2022/05/13 10:18:49;;;;;;;5.88;4.40;;;18.80;99.90;;;;;;5056074;28;20445;-69
2022/05/13 10:21:22;;;;;;;7.45;4.15;;;18.90;99.90;;;;;;4955659;29;20527;-68
2022/05/13 10:24:12;;;;;;;6.22;3.78;;;19.00;99.90;;;;;;4961536;28;20078;-69
2022/05/13 10:26:41;;;;;;;5.45;4.00;;;19.20;99.90;;;;;;5032103;28;20037;-68
2022/05/13 10:29:15;;;;;;;7.65;4.88;;;19.50;99.90;;;;;;5055532;28;20477;-68
2022/05/13 10:31:43;;;;;;;5.80;4.75;;;19.60;99.90;;;;;;5055554;28;20039;-68
2022/05/13 10:34:39;;;;;;;5.45;4.07;;;19.70;99.90;;;;;;5037165;28;20143;-68
2022/05/13 10:37:15;;;;;;;5.88;3.65;;;20.00;99.90;;;;;;5055188;28;20496;-69
2022/05/13 10:40:03;;;;;;;5.35;4.07;;;20.20;99.90;;;;;;5057875;28;20031;-68
2022/05/13 10:42:35;;;;;;;5.45;3.40;;;20.40;99.90;;;;;;5057164;28;20074;-68
2022/05/13 10:45:08;;;;;;;5.43;3.13;;;20.50;99.90;;;;;;5056726;28;20506;-68
2022/05/13 10:47:41;;;;;;;5.38;3.03;;;20.40;99.90;;;;;;5037045;28;20029;-68
2022/05/13 10:50:17;;;;;;;4.05;2.90;;;20.40;99.90;;;;;;5055203;28;20107;-69
2022/05/13 10:52:58;;;;;;;3.92;2.50;;;20.40;99.50;;;;;;5054369;28;20017;-69
2022/05/13 10:55:35;;;;;;;2.90;2.20;;;20.50;97.70;;;;;;5074210;28;20021;-68
2022/05/13 10:58:38;;;;;;;3.40;2.40;;;20.50;96.60;;;;;;5074910;28;20492;-68
2022/05/13 11:01:31;;;;;;;5.47;2.88;;;20.50;98.60;;;;;;5074949;28;20518;-68
2022/05/13 11:04:01;;;;;;;4.30;2.90;;;20.60;97.70;;;;;;5074576;28;20029;-68
2022/05/13 11:06:36;;;;;;;5.47;3.08;;;20.60;98.60;;;;;;5054976;28;20022;-69
2022/05/13 11:09:19;;;;;;;3.63;2.80;;;20.60;98.50;;;;;;5055015;28;20385;-68
2022/05/13 11:11:45;;;;;;;3.85;2.42;;;20.50;98.30;;;;;;5065660;28;20020;-68
2022/05/13 11:14:26;;;;;;;4.13;2.30;;;20.50;98.00;;;;;;5073442;28;20124;-68
2022/05/13 11:17:11;;;;;;;2.55;2.08;;;20.60;96.60;;;;;;5073144;28;20514;-69
2022/05/13 11:19:46;;;;;;;3.63;2.30;;;20.70;97.30;;;;;;5073620;28;20048;-68
2022/05/13 11:22:50;;;;;;;3.40;1.95;;;20.80;95.20;;;;;;5056125;28;20476;-68
2022/05/13 11:28:33;;;;;;;3.28;1.80;;;20.90;95.10;;;;;;5094711;28;20027;-69
2022/05/13 11:31:27;;;;;;;3.45;1.90;;;21.00;95.10;;;;;;5094816;28;20031;-70
2022/05/13 11:34:07;;;;;;;2.35;1.70;;;20.90;93.10;;;;;;5094628;28;20074;-70
2022/05/13 11:37:05;;;;;;;2.80;1.90;;;20.80;93.40;;;;;;5094956;28;20048;-70
2022/05/13 11:39:34;;;;;;;3.05;2.00;;;20.80;93.60;;;;;;5094489;28;20086;-69
2022/05/13 11:42:10;;;;;;;3.33;1.70;;;20.80;94.10;;;;;;5095165;28;20099;-69
2022/05/13 11:45:13;;;;;;;4.38;2.00;;;20.70;94.40;;;;;;5094470;28;20034;-69
2022/05/13 11:47:58;;;;;;;3.28;2.03;;;20.70;94.60;;;;;;5076366;28;20073;-69
2022/05/13 11:50:26;;;;;;;3.83;2.40;;;20.60;95.20;;;;;;5094404;28;20427;-69
2022/05/13 11:52:53;;;;;;;5.45;2.55;;;20.60;95.70;;;;;;5094594;28;20387;-69
2022/05/13 11:55:41;;;;;;;3.65;2.30;;;20.50;97.30;;;;;;5094685;28;20040;-70
2022/05/13 11:58:08;;;;;;;3.70;2.33;;;20.40;99.20;;;;;;5094440;28;20016;-70
2022/05/13 12:00:38;;;;;;;4.25;2.60;;;20.40;99.70;;;;;;5094536;28;20035;-70
2022/05/13 12:03:15;;;;;;;3.73;2.13;;;20.30;99.20;;;;;;5094220;28;20024;-69
2022/05/13 12:05:48;;;;;;;3.90;2.50;;;20.20;99.90;;;;;;5093266;28;20023;-69
2022/05/13 12:08:17;;;;;;;4.57;2.10;;;20.20;99.90;;;;;;5075845;28;20130;-69
2022/05/13 12:10:54;;;;;;;10.77;3.40;;;20.20;99.90;;;;;;5076025;28;20031;-69
2022/05/13 12:13:33;;;;;;;5.22;3.20;;;20.30;99.90;;;;;;5093953;28;20024;-69
2022/05/13 12:16:14;;;;;;;8.98;4.22;;;20.30;99.90;;;;;;5075931;28;20412;-69
2022/05/13 12:18:53;;;;;;;7.80;4.30;;;20.30;99.90;;;;;;5093863;28;20043;-70
2022/05/13 12:21:41;;;;;;;7.50;4.00;;;20.30;99.90;;;;;;5094053;28;20021;-69
2022/05/13 12:24:13;;;;;;;7.95;4.00;;;20.30;99.90;;;;;;5093667;28;20495;-69
2022/05/13 12:27:03;;;;;;;6.13;3.40;;;20.30;99.90;;;;;;5093666;28;20574;-69
2022/05/13 12:29:35;;;;;;;5.47;2.60;;;20.30;99.90;;;;;;5093911;28;20028;-69
2022/05/13 12:32:01;;;;;;;4.50;2.75;;;20.40;99.90;;;;;;5075580;28;20032;-69
2022/05/13 12:37:41;;;;;;;3.88;2.13;;;20.30;97.80;;;;;;5094227;28;20069;-69
2022/05/13 12:40:28;;;;;;;4.95;2.53;;;20.20;98.00;;;;;;5093510;28;20471;-69
2022/05/13 12:42:54;;;;;;;5.20;2.83;;;20.10;98.50;;;;;;5093836;28;20016;-69
2022/05/13 12:45:34;;;;;;;6.03;2.67;;;20.00;99.60;;;;;;5093385;28;20081;-69
2022/05/13 12:48:09;;;;;;;4.32;2.70;;;19.90;99.90;;;;;;5075398;28;20475;-69
2022/05/13 12:50:43;;;;;;;4.28;2.20;;;19.80;99.90;;;;;;5093440;28;20028;-69
2022/05/13 12:53:27;;;;;;;5.60;2.40;;;19.70;99.90;;;;;;5093658;28;20028;-69
2022/05/13 12:55:58;;;;;;;3.22;2.05;;;19.60;99.90;;;;;;5093609;28;20490;-70
2022/05/13 12:58:24;;;;;;;3.23;1.83;;;19.30;99.90;;;;;;5093381;28;20020;-68
2022/05/13 13:00:52;;;;;;;5.43;1.98;;;19.10;99.90;;;;;;5093337;28;20111;-69
2022/05/13 13:03:20;;;;;;;2.45;1.73;;;19.00;99.90;;;;;;5093477;28;20024;-68
2022/05/13 13:06:02;;;;;;;3.67;1.90;;;18.90;99.90;;;;;;5093632;28;20016;-69
2022/05/13 13:08:37;;;;;;;2.25;1.40;;;18.80;99.90;;;;;;5075237;28;20085;-68
2022/05/13 13:11:24;;;;;;;2.85;1.48;;;18.70;99.90;;;;;;5093665;28;20020;-69
2022/05/13 13:14:21;;;;;;;2.75;1.40;;;18.60;99.90;;;;;;5074911;28;20032;-69
2022/05/13 13:17:11;;;;;;;2.60;1.63;;;18.50;99.90;;;;;;5095975;28;20028;-69
2022/05/13 13:19:36;;;;;;;2.75;1.20;;;18.40;99.90;;;;;;5079313;28;20026;-69
2022/05/13 13:22:12;;;;;;;2.28;1.40;;;18.40;99.90;;;;;;5097832;28;20362;-69
2022/05/13 13:24:39;;;;;;;3.35;1.52;;;18.40;99.90;;;;;;5097126;28;20074;-69
2022/05/13 13:27:12;;;;;;;2.53;1.40;;;18.40;99.90;;;;;;5097127;28;20042;-69
2022/05/13 13:29:41;;;;;;;3.80;1.40;;;18.40;99.90;;;;;;5096937;28;20119;-69
2022/05/13 13:32:14;;;;;;;3.85;1.63;;;18.40;99.90;;;;;;5097656;28;20375;-69
2022/05/13 13:35:00;;;;;;;5.07;1.95;;;18.50;99.90;;;;;;5096881;28;20031;-69